Time;durP1;ratioP1;P1;durP2;ratioP2;P2;SDS_P1;SDS_P2;PMS_P1;PMS_P2;Temp;Humidity;BMP_temperature;BMP_pressure;BME280_temperature;BME280_humidity;BME280_pressure;Samples;Min_cycle;Max_cycle;Signal;HPM_P1;HPM_P2
2023/08/09 00:02:13;;;;;;;6.57;4.80;;;11.60;99.90;;;;;;5081785;28;20044;-74
2023/08/09 00:04:38;;;;;;;7.28;5.45;;;11.60;99.90;;;;;;5067447;28;20734;-75
2023/08/09 00:07:04;;;;;;;7.78;5.18;;;11.60;99.90;;;;;;5081817;28;20464;-74
2023/08/09 00:09:33;;;;;;;7.22;5.82;;;11.60;99.90;;;;;;5063180;28;20789;-74
2023/08/09 00:11:59;;;;;;;9.68;6.40;;;11.60;99.90;;;;;;5099128;28;20035;-75
2023/08/09 00:14:25;;;;;;;8.95;5.55;;;11.60;99.90;;;;;;5067318;28;20101;-75
2023/08/09 00:16:50;;;;;;;6.55;4.70;;;11.60;99.90;;;;;;5083295;28;20028;-75
2023/08/09 00:19:16;;;;;;;8.43;5.88;;;11.50;99.90;;;;;;5079514;28;20184;-75
2023/08/09 00:21:42;;;;;;;10.77;6.32;;;11.50;99.90;;;;;;5080668;28;20046;-75
2023/08/09 00:24:08;;;;;;;10.02;6.78;;;11.50;99.90;;;;;;5081332;28;20040;-75
2023/08/09 00:26:34;;;;;;;9.48;7.07;;;11.50;99.90;;;;;;5085133;28;20093;-75
2023/08/09 00:29:00;;;;;;;8.80;6.22;;;11.50;99.90;;;;;;5082566;28;20031;-75
2023/08/09 00:31:26;;;;;;;7.72;6.10;;;11.50;99.90;;;;;;5082468;28;20047;-75
2023/08/09 00:33:52;;;;;;;7.88;6.60;;;11.50;99.90;;;;;;5082540;28;20040;-75
2023/08/09 00:36:18;;;;;;;9.10;6.80;;;11.60;99.90;;;;;;5066718;28;20399;-75
2023/08/09 00:38:43;;;;;;;10.25;8.10;;;11.60;99.90;;;;;;5077158;28;20474;-76
2023/08/09 00:41:09;;;;;;;11.07;9.43;;;11.60;99.90;;;;;;5081580;28;20547;-76
2023/08/09 00:43:35;;;;;;;8.85;7.38;;;11.60;99.90;;;;;;5083351;28;20036;-76
2023/08/09 00:46:01;;;;;;;16.25;9.82;;;11.70;99.90;;;;;;5062168;28;20509;-76
2023/08/09 00:48:27;;;;;;;11.73;10.13;;;11.70;99.90;;;;;;5117483;27;20482;-76
2023/08/09 00:50:53;;;;;;;14.02;10.05;;;11.80;99.90;;;;;;5062945;28;20047;-76
2023/08/09 00:53:20;;;;;;;18.23;11.85;;;11.90;99.90;;;;;;5081624;28;20160;-76
2023/08/09 00:55:47;;;;;;;12.27;10.32;;;11.90;99.90;;;;;;5065285;28;20077;-75
2023/08/09 00:58:12;;;;;;;17.20;11.15;;;12.00;99.90;;;;;;5082825;28;20063;-75
2023/08/09 01:00:38;;;;;;;21.17;10.90;;;12.10;99.90;;;;;;5078574;28;20040;-76
2023/08/09 01:03:04;;;;;;;17.15;10.60;;;12.10;99.90;;;;;;5082562;28;20035;-76
2023/08/09 01:05:41;;;;;;;15.27;10.65;;;12.20;99.90;;;;;;5064771;28;20414;-76
2023/08/09 01:08:24;;;;;;;34.28;14.23;;;12.20;99.90;;;;;;5066028;28;20039;-76
2023/08/09 01:11:16;;;;;;;17.85;10.68;;;12.20;99.90;;;;;;5068777;28;20085;-76
2023/08/09 01:13:44;;;;;;;20.45;10.48;;;12.30;99.90;;;;;;5065426;28;20559;-76
2023/08/09 01:16:11;;;;;;;17.67;10.80;;;12.50;99.90;;;;;;5083058;28;20040;-76
2023/08/09 01:18:40;;;;;;;16.48;11.27;;;12.30;99.90;;;;;;5066094;28;20110;-76
2023/08/09 01:21:06;;;;;;;16.17;11.95;;;12.40;99.90;;;;;;5085881;28;20048;-77
2023/08/09 01:23:36;;;;;;;11.68;10.48;;;12.40;99.90;;;;;;5122231;27;20042;-76
2023/08/09 01:26:04;;;;;;;;;;;12.40;99.90;;;;;;5069888;28;20062;-76
2023/08/09 01:28:31;;;;;;;11.23;9.40;;;12.40;99.90;;;;;;5071875;28;19931;-76
2023/08/09 01:30:57;;;;;;;14.95;12.07;;;12.40;99.90;;;;;;5087086;28;20067;-76
2023/08/09 01:33:24;;;;;;;16.75;12.00;;;12.40;99.90;;;;;;5087483;28;20044;-76
2023/08/09 01:36:09;;;;;;;12.05;10.48;;;12.40;99.90;;;;;;5084908;28;20047;-76
2023/08/09 01:39:00;;;;;;;11.95;10.63;;;12.40;99.90;;;;;;5115119;27;20032;-77
2023/08/09 01:41:28;;;;;;;10.50;9.30;;;12.40;99.90;;;;;;5056403;28;20105;-76
2023/08/09 01:43:56;;;;;;;11.93;10.52;;;12.40;99.90;;;;;;5068455;28;20055;-77
2023/08/09 01:46:23;;;;;;;11.38;10.00;;;12.40;99.90;;;;;;5077422;28;20067;-77
2023/08/09 01:48:49;;;;;;;12.95;11.02;;;12.40;99.90;;;;;;5064399;28;20119;-76
2023/08/09 01:51:14;;;;;;;11.60;10.40;;;12.40;99.90;;;;;;5069653;28;20509;-77
2023/08/09 01:53:40;;;;;;;17.45;11.88;;;12.40;99.90;;;;;;5120272;27;20059;-78
2023/08/09 01:56:06;;;;;;;15.35;12.05;;;12.40;99.90;;;;;;5078995;28;20112;-76
2023/08/09 01:58:32;;;;;;;12.95;10.60;;;12.40;99.90;;;;;;5066154;28;20075;-76
2023/08/09 02:00:58;;;;;;;12.70;10.48;;;12.40;99.90;;;;;;5082946;28;20260;-76
2023/08/09 02:03:25;;;;;;;17.90;12.73;;;12.40;99.90;;;;;;5068533;28;20100;-77
2023/08/09 02:05:51;;;;;;;15.10;12.35;;;12.40;99.90;;;;;;5088607;28;20043;-77
2023/08/09 02:08:17;;;;;;;12.20;10.05;;;12.40;99.90;;;;;;5083578;28;20104;-76
2023/08/09 02:10:43;;;;;;;13.70;11.05;;;12.40;99.90;;;;;;5069565;28;20501;-77
2023/08/09 02:13:13;;;;;;;19.13;12.27;;;12.40;99.90;;;;;;5068001;28;20036;-77
2023/08/09 02:15:39;;;;;;;12.55;11.10;;;12.30;99.90;;;;;;5119350;27;20410;-76
2023/08/09 02:18:05;;;;;;;11.88;10.68;;;12.30;99.90;;;;;;5085984;28;20035;-77
2023/08/09 02:20:34;;;;;;;12.63;11.32;;;12.30;99.90;;;;;;5064364;28;20052;-77
2023/08/09 02:22:59;;;;;;;13.48;12.07;;;12.30;99.90;;;;;;5035941;28;20056;-76
2023/08/09 02:25:25;;;;;;;10.85;9.75;;;12.30;99.90;;;;;;5019948;28;20431;-76
2023/08/09 02:27:54;;;;;;;11.23;9.98;;;12.30;99.90;;;;;;5030533;28;20057;-76
2023/08/09 02:30:19;;;;;;;13.40;11.90;;;12.30;99.90;;;;;;5023691;28;20132;-76
2023/08/09 02:32:45;;;;;;;11.90;10.68;;;12.20;99.90;;;;;;5005829;28;20061;-76
2023/08/09 02:35:11;;;;;;;12.88;11.57;;;12.20;99.90;;;;;;5024301;28;20504;-76
2023/08/09 02:37:40;;;;;;;13.15;11.63;;;12.20;99.90;;;;;;5021317;28;20139;-76
2023/08/09 02:40:06;;;;;;;11.77;10.57;;;12.20;99.90;;;;;;5037462;28;20642;-76
2023/08/09 02:42:32;;;;;;;13.32;11.93;;;12.10;99.90;;;;;;5022388;28;20064;-76
2023/08/09 02:44:58;;;;;;;11.93;10.73;;;12.10;99.90;;;;;;5039410;28;20045;-76
2023/08/09 02:47:24;;;;;;;12.90;11.65;;;12.10;99.90;;;;;;5021285;28;20107;-76
2023/08/09 02:49:50;;;;;;;10.27;9.27;;;12.10;99.90;;;;;;5021867;28;20037;-77
2023/08/09 02:52:16;;;;;;;11.00;9.80;;;12.00;99.90;;;;;;5051680;28;20717;-76
2023/08/09 02:54:43;;;;;;;11.60;10.50;;;12.00;99.90;;;;;;5070627;28;20775;-76
2023/08/09 02:57:09;;;;;;;12.93;11.73;;;11.90;99.90;;;;;;5099371;28;20047;-76
2023/08/09 02:59:34;;;;;;;11.82;10.63;;;11.90;99.90;;;;;;5065990;28;20448;-76
2023/08/09 03:02:03;;;;;;;13.20;11.90;;;11.90;99.90;;;;;;5068485;28;20606;-76
2023/08/09 03:04:29;;;;;;;12.52;11.07;;;11.90;99.90;;;;;;5064788;28;20570;-76
2023/08/09 03:06:55;;;;;;;19.10;12.77;;;11.80;99.90;;;;;;5084790;28;20031;-76
2023/08/09 03:09:21;;;;;;;17.23;13.38;;;11.80;99.90;;;;;;5081165;28;20040;-76
2023/08/09 03:11:46;;;;;;;11.98;10.88;;;11.80;99.90;;;;;;5068009;28;20075;-76
2023/08/09 03:14:13;;;;;;;14.00;12.60;;;11.70;99.90;;;;;;5082773;27;20330;-75
2023/08/09 03:16:41;;;;;;;12.32;11.13;;;11.70;99.90;;;;;;5083724;28;20086;-75
2023/08/09 03:19:10;;;;;;;12.60;11.32;;;11.70;99.90;;;;;;5081425;28;20063;-77
2023/08/09 03:21:36;;;;;;;20.58;14.45;;;11.70;99.90;;;;;;5083265;28;20516;-75
2023/08/09 03:24:05;;;;;;;11.57;10.38;;;11.60;99.90;;;;;;5082650;28;20110;-75
2023/08/09 03:26:31;;;;;;;11.48;10.32;;;11.60;99.90;;;;;;5081079;28;20043;-75
2023/08/09 03:28:57;;;;;;;12.20;11.10;;;11.60;99.90;;;;;;5081645;28;20042;-75
2023/08/09 03:31:23;;;;;;;11.18;10.15;;;11.50;99.90;;;;;;5117734;27;20549;-76
2023/08/09 03:33:48;;;;;;;11.63;10.52;;;11.50;99.90;;;;;;5066682;28;20044;-75
2023/08/09 03:36:14;;;;;;;15.10;13.63;;;11.50;99.90;;;;;;5066397;28;20052;-76
2023/08/09 03:38:40;;;;;;;13.48;12.23;;;11.50;99.90;;;;;;5065035;28;20117;-75
2023/08/09 03:41:05;;;;;;;13.25;11.95;;;11.50;99.90;;;;;;5081946;28;20422;-76
2023/08/09 03:43:31;;;;;;;12.70;11.50;;;11.40;99.90;;;;;;5081980;28;20135;-76
2023/08/09 03:45:57;;;;;;;14.93;11.25;;;11.40;99.90;;;;;;5081310;28;20513;-75
2023/08/09 03:48:23;;;;;;;18.15;14.85;;;11.40;99.90;;;;;;5082161;28;20047;-76
2023/08/09 03:50:49;;;;;;;12.73;11.52;;;11.50;99.90;;;;;;5068179;28;20035;-76
2023/08/09 03:53:15;;;;;;;13.00;10.98;;;11.40;99.90;;;;;;5063214;28;20227;-76
2023/08/09 03:55:42;;;;;;;14.57;13.23;;;11.50;99.90;;;;;;5098952;28;20387;-76
2023/08/09 03:58:11;;;;;;;13.25;12.05;;;11.50;99.90;;;;;;5064509;28;20074;-76
2023/08/09 04:00:36;;;;;;;13.32;12.02;;;11.40;99.90;;;;;;5082949;28;20036;-75
2023/08/09 04:03:05;;;;;;;12.98;11.77;;;11.40;99.90;;;;;;5081217;28;20044;-75
2023/08/09 04:05:31;;;;;;;12.55;11.48;;;11.40;99.90;;;;;;5082575;28;20039;-76
2023/08/09 04:07:58;;;;;;;13.77;12.48;;;11.40;99.90;;;;;;5066010;27;20095;-75
2023/08/09 04:10:24;;;;;;;11.98;10.88;;;11.30;99.90;;;;;;5080044;28;20043;-75
2023/08/09 04:12:50;;;;;;;11.65;10.55;;;11.30;99.90;;;;;;5082157;28;20096;-76
2023/08/09 04:15:16;;;;;;;11.98;10.93;;;11.30;99.90;;;;;;5082606;28;20118;-76
2023/08/09 04:17:42;;;;;;;11.27;10.27;;;11.20;99.90;;;;;;5084086;28;20814;-76
2023/08/09 04:20:11;;;;;;;11.55;10.45;;;11.20;99.90;;;;;;5081692;28;20569;-76
2023/08/09 04:22:40;;;;;;;11.43;10.50;;;11.20;99.90;;;;;;5066593;28;20043;-76
2023/08/09 04:25:13;;;;;;;14.02;12.68;;;11.10;99.90;;;;;;5082123;28;20036;-76
2023/08/09 04:27:39;;;;;;;10.70;9.70;;;11.10;99.90;;;;;;5083140;28;20046;-76
2023/08/09 04:30:09;;;;;;;12.20;11.10;;;11.10;99.90;;;;;;5085323;28;20035;-76
2023/08/09 04:32:37;;;;;;;16.17;14.52;;;11.10;99.90;;;;;;5066807;28;20035;-76
2023/08/09 04:35:09;;;;;;;14.07;12.77;;;11.10;99.90;;;;;;5065265;28;20139;-76
2023/08/09 04:37:35;;;;;;;13.00;11.90;;;11.10;99.90;;;;;;5099965;28;20127;-76
2023/08/09 04:40:02;;;;;;;12.45;11.45;;;11.10;99.90;;;;;;5084358;28;20459;-76
2023/08/09 04:42:27;;;;;;;13.25;11.98;;;11.10;99.90;;;;;;5068081;28;20311;-76
2023/08/09 04:44:54;;;;;;;13.43;12.23;;;11.10;99.90;;;;;;5083699;28;20484;-76
2023/08/09 04:47:21;;;;;;;11.90;10.90;;;11.10;99.90;;;;;;5080833;28;20044;-76
2023/08/09 04:49:47;;;;;;;13.75;12.45;;;11.10;99.90;;;;;;5083249;28;20089;-76
2023/08/09 04:52:13;;;;;;;14.98;13.57;;;11.10;99.90;;;;;;5064935;28;20047;-76
2023/08/09 04:54:38;;;;;;;17.63;15.38;;;11.10;99.90;;;;;;5085158;28;20130;-76
2023/08/09 04:57:10;;;;;;;12.70;11.60;;;11.10;99.90;;;;;;5069816;28;20032;-76
2023/08/09 04:59:35;;;;;;;13.70;12.45;;;11.10;99.90;;;;;;5072130;28;20743;-77
2023/08/09 05:02:01;;;;;;;15.68;14.18;;;11.20;99.90;;;;;;5071522;28;20043;-77
2023/08/09 05:04:27;;;;;;;17.50;15.80;;;11.20;99.90;;;;;;5085098;28;20478;-77
2023/08/09 05:06:53;;;;;;;15.32;14.02;;;11.30;99.90;;;;;;5086566;28;20826;-77
2023/08/09 05:09:19;;;;;;;14.35;12.95;;;11.30;99.90;;;;;;5071739;28;20040;-77
2023/08/09 05:11:45;;;;;;;16.05;14.60;;;11.30;99.90;;;;;;5069031;28;20043;-78
2023/08/09 05:14:12;;;;;;;14.82;13.52;;;11.30;99.90;;;;;;5087382;28;20039;-77
2023/08/09 05:16:40;;;;;;;15.52;13.98;;;11.40;99.90;;;;;;5090584;28;20050;-77
2023/08/09 05:19:09;;;;;;;15.88;14.38;;;11.40;99.90;;;;;;5071528;28;20036;-77
2023/08/09 05:21:35;;;;;;;16.25;14.75;;;11.40;99.90;;;;;;5087293;28;20079;-77
2023/08/09 05:24:00;;;;;;;19.55;17.73;;;11.50;99.90;;;;;;5083860;28;20071;-76
2023/08/09 05:26:26;;;;;;;17.73;16.13;;;11.50;99.90;;;;;;5070105;28;20584;-76
2023/08/09 05:28:52;;;;;;;15.43;14.07;;;11.60;99.90;;;;;;5082283;28;20079;-76
2023/08/09 05:31:21;;;;;;;15.90;14.50;;;11.60;99.90;;;;;;5081038;28;20136;-76
2023/08/09 05:33:46;;;;;;;16.33;14.82;;;11.60;99.90;;;;;;5087667;28;20036;-76
2023/08/09 05:36:12;;;;;;;16.25;14.80;;;11.70;99.90;;;;;;5090729;28;20516;-76
2023/08/09 05:38:41;;;;;;;17.65;16.05;;;11.70;99.90;;;;;;5069986;28;20035;-76
2023/08/09 05:41:07;;;;;;;15.38;14.05;;;11.80;99.90;;;;;;5106840;28;20406;-76
2023/08/09 05:43:35;;;;;;;16.00;14.50;;;11.80;99.90;;;;;;5066185;28;20036;-76
2023/08/09 05:46:02;;;;;;;15.68;14.27;;;11.90;99.90;;;;;;5082138;28;20057;-77
2023/08/09 05:48:27;;;;;;;16.73;15.23;;;11.90;99.90;;;;;;5078100;28;20051;-77
2023/08/09 05:50:53;;;;;;;15.02;13.57;;;12.00;99.90;;;;;;5081970;28;20047;-76
2023/08/09 05:53:19;;;;;;;15.35;13.95;;;12.00;99.90;;;;;;5113452;27;20050;-77
2023/08/09 05:55:45;;;;;;;15.35;13.90;;;12.00;99.90;;;;;;5079835;28;20508;-77
2023/08/09 05:58:11;;;;;;;16.33;14.77;;;12.10;99.90;;;;;;5081777;28;20054;-76
2023/08/09 06:00:37;;;;;;;15.70;14.32;;;12.20;99.90;;;;;;5081249;28;20046;-77
2023/08/09 06:03:06;;;;;;;16.60;15.10;;;12.20;99.90;;;;;;5063598;28;20134;-76
2023/08/09 06:05:35;;;;;;;17.15;15.63;;;12.30;99.90;;;;;;5080065;28;20119;-76
2023/08/09 06:08:01;;;;;;;15.05;13.65;;;12.30;99.90;;;;;;5080209;28;20215;-77
2023/08/09 06:10:27;;;;;;;14.43;13.13;;;12.40;99.90;;;;;;5061764;28;20054;-77
2023/08/09 06:12:53;;;;;;;13.90;12.70;;;12.40;99.90;;;;;;5064537;28;20044;-76
2023/08/09 06:15:20;;;;;;;14.18;12.80;;;12.40;99.90;;;;;;5061814;28;20115;-76
2023/08/09 06:17:49;;;;;;;13.10;11.98;;;12.50;99.90;;;;;;5082364;28;20082;-76
2023/08/09 06:20:15;;;;;;;12.75;11.68;;;12.60;99.90;;;;;;5064336;28;20043;-76
2023/08/09 06:22:43;;;;;;;12.98;11.77;;;12.60;99.90;;;;;;5063088;27;20039;-76
2023/08/09 06:25:10;;;;;;;12.52;11.32;;;12.70;99.90;;;;;;5062588;28;20492;-76
2023/08/09 06:27:36;;;;;;;12.13;11.13;;;12.70;99.90;;;;;;5063343;28;20059;-76
2023/08/09 06:30:03;;;;;;;11.82;10.75;;;12.80;99.90;;;;;;5079841;28;20096;-76
2023/08/09 06:32:29;;;;;;;11.90;10.85;;;12.80;99.90;;;;;;5080569;28;20055;-76
2023/08/09 06:34:55;;;;;;;11.65;10.70;;;12.90;99.90;;;;;;5064818;28;20097;-76
2023/08/09 06:37:21;;;;;;;11.15;10.05;;;12.90;99.90;;;;;;5078771;28;20051;-76
2023/08/09 06:39:46;;;;;;;10.43;9.52;;;13.00;99.90;;;;;;5062813;28;20059;-77
2023/08/09 06:42:16;;;;;;;10.02;9.05;;;13.10;99.90;;;;;;5079099;28;20040;-76
2023/08/09 06:44:42;;;;;;;8.98;8.23;;;13.10;99.90;;;;;;5079056;28;20409;-76
2023/08/09 06:47:11;;;;;;;8.07;7.35;;;13.30;99.90;;;;;;5080231;28;20108;-77
2023/08/09 06:49:37;;;;;;;8.68;7.30;;;13.40;99.90;;;;;;5079041;28;20058;-76
2023/08/09 06:52:03;;;;;;;8.90;7.38;;;13.50;99.90;;;;;;5077961;28;20043;-75
2023/08/09 06:54:30;;;;;;;7.65;6.63;;;13.60;99.90;;;;;;5060927;28;20070;-77
2023/08/09 06:56:56;;;;;;;7.90;6.65;;;13.70;99.90;;;;;;5078657;28;20047;-77
2023/08/09 06:59:22;;;;;;;6.80;5.93;;;13.80;99.90;;;;;;5077900;28;20040;-77
2023/08/09 07:01:48;;;;;;;8.80;7.40;;;13.90;99.90;;;;;;5081792;28;20039;-77
2023/08/09 07:04:18;;;;;;;6.50;5.90;;;14.00;99.90;;;;;;5077693;27;20066;-78
2023/08/09 07:06:44;;;;;;;5.75;5.22;;;14.10;99.90;;;;;;5080817;28;20568;-78
2023/08/09 07:09:11;;;;;;;8.55;5.45;;;14.20;99.90;;;;;;5112252;27;20070;-78
2023/08/09 07:11:40;;;;;;;5.93;4.45;;;14.30;99.90;;;;;;5079570;28;20048;-77
2023/08/09 07:14:06;;;;;;;4.18;3.63;;;14.40;99.90;;;;;;5080524;27;20042;-77
2023/08/09 07:16:32;;;;;;;4.88;3.30;;;14.50;99.90;;;;;;5080904;28;20051;-77
2023/08/09 07:18:57;;;;;;;5.03;3.55;;;14.60;99.90;;;;;;5076682;28;20122;-77
2023/08/09 07:21:23;;;;;;;4.22;3.15;;;14.70;99.90;;;;;;5079329;28;20036;-77
2023/08/09 07:23:49;;;;;;;4.88;3.75;;;14.90;99.90;;;;;;5079222;28;20036;-76
2023/08/09 07:26:15;;;;;;;3.63;2.45;;;15.00;99.90;;;;;;5073899;28;20073;-77
2023/08/09 07:28:41;;;;;;;5.32;2.95;;;15.20;99.90;;;;;;5076269;28;20120;-76
2023/08/09 07:31:18;;;;;;;5.10;2.78;;;15.30;99.90;;;;;;5079287;28;20055;-76
2023/08/09 07:33:44;;;;;;;3.83;2.55;;;15.50;99.90;;;;;;5076398;28;20058;-76
2023/08/09 07:36:10;;;;;;;3.22;2.13;;;15.60;99.90;;;;;;5078623;28;20040;-77
2023/08/09 07:38:36;;;;;;;6.82;2.70;;;15.70;99.90;;;;;;5077733;28;21842;-77
2023/08/09 07:41:03;;;;;;;4.18;2.80;;;15.80;99.90;;;;;;5079870;28;20105;-77
2023/08/09 07:43:28;;;;;;;3.58;2.10;;;16.00;99.90;;;;;;5060401;28;20047;-77
2023/08/09 07:45:57;;;;;;;4.28;2.28;;;16.20;99.90;;;;;;5061899;28;20050;-76
2023/08/09 07:48:23;;;;;;;5.05;2.67;;;16.30;99.90;;;;;;5079390;27;20035;-76
2023/08/09 07:50:49;;;;;;;3.78;2.50;;;16.40;99.90;;;;;;5060726;28;20035;-76
2023/08/09 07:53:16;;;;;;;5.18;2.60;;;16.60;99.90;;;;;;5105729;27;20052;-76
2023/08/09 07:55:45;;;;;;;4.03;2.38;;;16.80;99.90;;;;;;5060010;28;20055;-77
2023/08/09 07:58:10;;;;;;;5.47;2.13;;;16.90;99.90;;;;;;5076253;28;20739;-76
2023/08/09 08:00:36;;;;;;;3.25;2.20;;;17.10;99.90;;;;;;5057879;28;20130;-76
2023/08/09 08:03:03;;;;;;;4.22;2.65;;;17.30;99.90;;;;;;5073913;28;20035;-76
2023/08/09 08:05:29;;;;;;;3.22;2.30;;;17.30;99.90;;;;;;5066178;28;20032;-76
2023/08/09 08:07:55;;;;;;;2.85;2.00;;;17.40;99.90;;;;;;5066112;28;20055;-77
2023/08/09 08:10:22;;;;;;;4.70;2.30;;;17.50;99.90;;;;;;5081819;28;20398;-76
2023/08/09 08:12:49;;;;;;;3.40;1.90;;;17.60;99.90;;;;;;5079907;28;20054;-76
2023/08/09 08:15:16;;;;;;;4.00;2.25;;;17.80;99.90;;;;;;5081024;28;20044;-77
2023/08/09 08:17:42;;;;;;;5.05;1.90;;;17.80;99.90;;;;;;5080553;28;20480;-76
2023/08/09 08:20:15;;;;;;;3.13;2.03;;;18.00;99.90;;;;;;5079643;28;20043;-76
2023/08/09 08:22:46;;;;;;;3.28;1.52;;;18.10;99.90;;;;;;5080699;28;20052;-76
2023/08/09 08:25:16;;;;;;;3.97;1.77;;;18.10;99.90;;;;;;5081558;28;20681;-76
2023/08/09 08:27:45;;;;;;;4.68;1.90;;;18.20;99.90;;;;;;5062395;28;20685;-76
2023/08/09 08:30:13;;;;;;;2.90;1.50;;;18.30;99.90;;;;;;5078967;28;20080;-76
2023/08/09 08:32:39;;;;;;;3.30;2.00;;;18.40;99.90;;;;;;5078159;28;20301;-76
2023/08/09 08:35:13;;;;;;;2.53;1.85;;;18.50;99.90;;;;;;5081754;28;20128;-75
2023/08/09 08:37:39;;;;;;;3.92;1.70;;;18.60;99.90;;;;;;5064159;28;20054;-76
2023/08/09 08:40:17;;;;;;;3.88;1.42;;;18.70;99.90;;;;;;5081955;28;20052;-76
2023/08/09 08:42:48;;;;;;;4.63;1.20;;;18.80;99.90;;;;;;5079244;28;20448;-76
2023/08/09 08:45:15;;;;;;;2.80;1.23;;;18.90;99.90;;;;;;5078895;28;20044;-76
2023/08/09 08:47:45;;;;;;;3.58;1.30;;;19.00;99.90;;;;;;5080673;28;20056;-75
2023/08/09 08:50:13;;;;;;;3.50;1.52;;;18.90;99.90;;;;;;5080742;28;20075;-76
2023/08/09 08:52:42;;;;;;;4.43;1.38;;;18.80;99.90;;;;;;5098005;28;20048;-76
2023/08/09 08:55:10;;;;;;;2.70;1.48;;;18.70;99.90;;;;;;5063878;28;20043;-76
2023/08/09 08:57:40;;;;;;;2.85;1.27;;;18.60;99.90;;;;;;5111400;27;20039;-76
2023/08/09 09:00:08;;;;;;;4.13;1.70;;;18.50;99.90;;;;;;5078736;28;20078;-76
2023/08/09 09:02:35;;;;;;;2.35;1.23;;;18.70;99.90;;;;;;5059516;28;20039;-76
2023/08/09 09:05:02;;;;;;;3.00;1.23;;;18.70;99.90;;;;;;5060646;28;20131;-76
2023/08/09 09:07:29;;;;;;;2.35;1.20;;;18.90;99.90;;;;;;5057105;28;20040;-76
2023/08/09 09:10:05;;;;;;;4.10;1.10;;;19.10;99.90;;;;;;5078393;28;20082;-76
2023/08/09 09:12:37;;;;;;;2.55;1.20;;;19.20;99.90;;;;;;5074008;28;20048;-76
2023/08/09 09:15:09;;;;;;;2.22;1.17;;;19.20;99.90;;;;;;5062414;28;20600;-76
2023/08/09 09:17:44;;;;;;;5.38;1.33;;;19.20;99.90;;;;;;5076338;28;20047;-76
2023/08/09 09:20:21;;;;;;;4.55;1.17;;;19.30;99.90;;;;;;5060508;28;20035;-75
2023/08/09 09:22:48;;;;;;;4.00;1.05;;;19.40;99.90;;;;;;5059261;28;20036;-75
2023/08/09 09:25:14;;;;;;;2.33;1.17;;;19.50;99.90;;;;;;5094561;28;20076;-75
2023/08/09 09:27:40;;;;;;;3.33;1.10;;;19.70;99.90;;;;;;5077455;28;20516;-75
2023/08/09 09:30:19;;;;;;;2.40;1.10;;;19.90;99.90;;;;;;5077332;28;20036;-75
2023/08/09 09:32:51;;;;;;;4.45;1.23;;;19.90;99.90;;;;;;5078713;28;20055;-75
2023/08/09 09:35:28;;;;;;;2.88;1.00;;;19.80;99.90;;;;;;5076266;28;20379;-75
2023/08/09 09:37:56;;;;;;;3.17;1.15;;;19.60;99.90;;;;;;5077366;28;20070;-75
2023/08/09 09:40:27;;;;;;;2.67;0.88;;;19.30;99.90;;;;;;5076212;28;20075;-75
2023/08/09 09:42:54;;;;;;;2.03;0.90;;;19.20;99.90;;;;;;5096470;28;20039;-75
2023/08/09 09:45:25;;;;;;;3.70;0.85;;;19.30;99.90;;;;;;5062273;28;20080;-75
2023/08/09 09:47:54;;;;;;;1.55;0.82;;;19.60;99.90;;;;;;5065818;28;20051;-75
2023/08/09 09:50:24;;;;;;;2.90;0.90;;;19.90;99.90;;;;;;5060390;28;20035;-75
2023/08/09 09:52:53;;;;;;;2.22;0.88;;;20.10;99.90;;;;;;5081798;28;20775;-74
2023/08/09 09:55:20;;;;;;;2.88;0.80;;;20.40;99.90;;;;;;5113895;27;20490;-75
2023/08/09 09:57:47;;;;;;;2.80;0.90;;;20.50;99.90;;;;;;5082982;28;20048;-75
2023/08/09 10:00:20;;;;;;;3.22;1.10;;;20.60;99.90;;;;;;5059803;28;20056;-75
2023/08/09 10:02:50;;;;;;;2.13;1.10;;;20.70;99.90;;;;;;5087210;28;20132;-75
2023/08/09 10:05:29;;;;;;;4.15;1.10;;;20.80;99.90;;;;;;5068094;28;20542;-75
2023/08/09 10:07:56;;;;;;;1.40;0.70;;;20.70;99.90;;;;;;5113090;27;20158;-75
2023/08/09 10:10:22;;;;;;;4.55;1.05;;;20.50;99.90;;;;;;5062586;28;20043;-76
2023/08/09 10:12:54;;;;;;;2.22;1.00;;;20.40;99.90;;;;;;5081664;28;20043;-75
2023/08/09 10:15:29;;;;;;;2.35;0.95;;;20.50;99.90;;;;;;5060439;28;20042;-75
2023/08/09 10:18:03;;;;;;;3.00;0.95;;;20.60;99.90;;;;;;5097695;27;20410;-74
2023/08/09 10:20:31;;;;;;;3.97;1.10;;;20.80;99.90;;;;;;5080109;28;20156;-75
2023/08/09 10:22:58;;;;;;;2.13;0.85;;;20.80;99.90;;;;;;5061199;28;20047;-75
2023/08/09 10:25:56;;;;;;;2.30;0.80;;;20.80;99.90;;;;;;5080958;28;20115;-75
2023/08/09 10:28:45;;;;;;;4.28;1.17;;;20.80;99.90;;;;;;5044047;28;21066;-75
2023/08/09 10:31:14;;;;;;;2.22;0.77;;;20.80;99.90;;;;;;5062252;28;20063;-75
2023/08/09 10:34:06;;;;;;;2.45;0.80;;;20.80;99.90;;;;;;5079453;28;20048;-75
2023/08/09 10:36:33;;;;;;;2.92;1.00;;;20.80;99.90;;;;;;5081361;28;20055;-75
2023/08/09 10:39:14;;;;;;;5.57;1.20;;;20.70;99.90;;;;;;5060612;28;20047;-75
2023/08/09 10:42:05;;;;;;;3.78;0.93;;;20.60;99.90;;;;;;5080586;28;20040;-75
2023/08/09 10:44:40;;;;;;;1.00;0.65;;;20.60;99.90;;;;;;5081694;28;20508;-75
2023/08/09 10:47:10;;;;;;;2.25;0.70;;;20.50;99.90;;;;;;5078209;28;20558;-75
2023/08/09 10:49:48;;;;;;;2.67;0.80;;;20.70;99.90;;;;;;5063170;28;20075;-74
2023/08/09 10:52:34;;;;;;;2.50;0.88;;;21.00;99.90;;;;;;5061238;28;20054;-74
2023/08/09 10:55:19;;;;;;;2.33;0.90;;;21.30;99.90;;;;;;5081202;28;20047;-75
2023/08/09 10:57:50;;;;;;;2.15;0.88;;;21.40;99.90;;;;;;5082383;28;20172;-75
2023/08/09 11:00:16;;;;;;;3.50;0.88;;;21.60;99.90;;;;;;5079094;28;21193;-75
2023/08/09 11:02:45;;;;;;;3.08;1.00;;;21.80;99.90;;;;;;5063325;28;20044;-75
2023/08/09 11:05:12;;;;;;;2.05;0.68;;;21.90;99.90;;;;;;5062399;28;20260;-75
2023/08/09 11:07:50;;;;;;;4.40;1.10;;;21.90;99.90;;;;;;5078879;28;20071;-75
2023/08/09 11:10:28;;;;;;;2.05;0.82;;;21.70;98.40;;;;;;5058743;28;20039;-75
2023/08/09 11:13:01;;;;;;;1.65;0.73;;;21.60;98.40;;;;;;5077755;28;20359;-75
2023/08/09 11:15:27;;;;;;;2.53;0.80;;;21.40;97.20;;;;;;5061052;28;20047;-75
2023/08/09 11:17:53;;;;;;;2.08;1.00;;;21.20;97.40;;;;;;5064683;28;20043;-75
2023/08/09 11:20:22;;;;;;;3.70;1.00;;;21.00;99.90;;;;;;5076632;28;20361;-75
2023/08/09 11:22:58;;;;;;;3.25;1.00;;;20.90;99.50;;;;;;5060996;28;20704;-75
2023/08/09 11:25:26;;;;;;;2.00;0.80;;;20.70;99.90;;;;;;5078496;28;20046;-75
2023/08/09 11:27:57;;;;;;;3.27;0.93;;;20.60;99.90;;;;;;5075484;28;20549;-75
2023/08/09 11:30:23;;;;;;;2.50;0.80;;;20.60;99.90;;;;;;5077042;28;20137;-75
2023/08/09 11:33:16;;;;;;;3.63;1.10;;;20.70;99.90;;;;;;5078160;28;20494;-75
2023/08/09 11:35:45;;;;;;;2.58;1.23;;;20.80;99.90;;;;;;5072576;28;20078;-76
2023/08/09 11:38:14;;;;;;;3.28;1.02;;;20.70;99.90;;;;;;5079104;28;20081;-75
2023/08/09 11:40:45;;;;;;;2.75;0.90;;;20.70;99.90;;;;;;5076277;28;20051;-75
2023/08/09 11:43:16;;;;;;;2.95;0.80;;;20.70;99.90;;;;;;5078365;28;20075;-75
2023/08/09 11:45:55;;;;;;;4.95;1.38;;;20.80;99.90;;;;;;5111299;27;20438;-75
2023/08/09 11:48:29;;;;;;;2.27;1.00;;;21.00;99.90;;;;;;5077211;28;20046;-75
2023/08/09 11:51:05;;;;;;;3.35;1.20;;;21.10;99.90;;;;;;5078076;28;20486;-75
2023/08/09 11:53:36;;;;;;;3.35;1.20;;;21.20;99.90;;;;;;5065628;28;20410;-75
2023/08/09 11:56:10;;;;;;;5.28;1.20;;;21.20;99.90;;;;;;5117553;27;20061;-75
2023/08/09 11:58:37;;;;;;;2.88;1.45;;;21.10;99.90;;;;;;5084021;28;20047;-75
2023/08/09 12:01:36;;;;;;;3.03;1.20;;;21.20;99.90;;;;;;5065180;28;20040;-76
2023/08/09 12:04:09;;;;;;;2.97;1.02;;;21.50;99.90;;;;;;5033903;28;20059;-75
2023/08/09 12:06:42;;;;;;;2.95;1.20;;;21.60;99.90;;;;;;5062496;28;20515;-75
2023/08/09 12:09:34;;;;;;;3.60;1.38;;;21.80;99.90;;;;;;5068120;28;20043;-75
2023/08/09 12:12:33;;;;;;;2.88;1.20;;;21.80;99.90;;;;;;5065277;28;20049;-75
2023/08/09 12:14:59;;;;;;;3.55;1.02;;;21.70;99.90;;;;;;5098858;28;20052;-75
2023/08/09 12:17:27;;;;;;;3.30;1.30;;;21.60;99.90;;;;;;5084906;28;20069;-74
2023/08/09 12:20:00;;;;;;;3.75;1.40;;;21.70;99.90;;;;;;5080185;28;20051;-75
2023/08/09 12:22:28;;;;;;;3.25;1.30;;;21.80;99.90;;;;;;5084092;28;20104;-74
2023/08/09 12:24:58;;;;;;;2.55;1.10;;;22.00;99.90;;;;;;5101522;28;20481;-75
2023/08/09 12:27:24;;;;;;;4.43;1.33;;;22.10;99.90;;;;;;5064503;28;20031;-75
2023/08/09 12:29:50;;;;;;;3.35;1.08;;;22.30;99.90;;;;;;5095815;28;20043;-75
2023/08/09 12:32:17;;;;;;;3.17;1.10;;;22.40;99.90;;;;;;5083355;28;20079;-75
2023/08/09 12:34:43;;;;;;;4.78;1.40;;;22.50;99.90;;;;;;5068540;28;20421;-75
2023/08/09 12:37:10;;;;;;;4.10;1.27;;;22.50;99.90;;;;;;5065251;28;20134;-75
2023/08/09 12:39:36;;;;;;;4.47;1.27;;;22.40;99.90;;;;;;5066343;28;20036;-75
2023/08/09 12:42:03;;;;;;;4.00;1.17;;;22.30;99.90;;;;;;5084608;28;20513;-75
2023/08/09 12:44:29;;;;;;;4.80;1.50;;;22.00;99.90;;;;;;5083551;28;20035;-75
2023/08/09 12:46:55;;;;;;;3.15;1.33;;;21.90;99.90;;;;;;5084138;28;20058;-75